Ladysmith, Canada
Current Conditions -  °F | °C
As of 6:00 PM on Sunday 25 Jan 2015 (Local Time) from CYCD Reporting Station
Light Fog Light Fog  
Wind Chill: 48°   Ceiling: 18000
Heat Index: 48°   Visibility: 15mi
Dew Point: 46°   Wind: 0mph
Humidity: 93%   Direction: NA
Pressure: 30.08"   Gusts: NA
Location:  48.98°N, 123.82°W
Report Text: CYCD 260200Z 00000KT 15SM MIFG BCFG OVC180 09/08 A3008 RMK CI8 SLP185
Loading
Personal Weather Stations






























Interactive Weather Map New forecast layout! Learn more

10-Day Weather Forecast

Advertisements
Track Severe Weather on mobile